sensor_id;sensor_type;location;lat;lon;timestamp;temperature;humidity
30288;DHT22;17103;48.316;11.558;2024-02-28T00:01:37;11.80;45.40
30288;DHT22;17103;48.316;11.558;2024-02-28T00:04:03;11.80;45.30
30288;DHT22;17103;48.316;11.558;2024-02-28T00:06:29;11.90;45.20
30288;DHT22;17103;48.316;11.558;2024-02-28T00:08:54;11.90;45.10
30288;DHT22;17103;48.316;11.558;2024-02-28T00:11:20;12.00;45.10
30288;DHT22;17103;48.316;11.558;2024-02-28T00:13:46;12.10;45.10
30288;DHT22;17103;48.316;11.558;2024-02-28T00:16:12;12.10;45.00
30288;DHT22;17103;48.316;11.558;2024-02-28T00:18:39;12.20;45.00
30288;DHT22;17103;48.316;11.558;2024-02-28T00:21:04;12.30;45.00
30288;DHT22;17103;48.316;11.558;2024-02-28T00:23:30;12.70;45.20
30288;DHT22;17103;48.316;11.558;2024-02-28T00:25:56;12.50;44.90
30288;DHT22;17103;48.316;11.558;2024-02-28T00:28:22;12.50;44.70
30288;DHT22;17103;48.316;11.558;2024-02-28T00:30:48;12.60;44.40
30288;DHT22;17103;48.316;11.558;2024-02-28T00:33:13;12.50;44.20
30288;DHT22;17103;48.316;11.558;2024-02-28T00:35:39;12.50;44.10
30288;DHT22;17103;48.316;11.558;2024-02-28T00:38:05;12.50;43.90
30288;DHT22;17103;48.316;11.558;2024-02-28T00:40:31;12.40;43.80
30288;DHT22;17103;48.316;11.558;2024-02-28T00:42:57;12.30;43.80
30288;DHT22;17103;48.316;11.558;2024-02-28T00:45:23;12.20;43.90
30288;DHT22;17103;48.316;11.558;2024-02-28T00:47:49;12.00;43.90
30288;DHT22;17103;48.316;11.558;2024-02-28T00:50:14;11.90;44.10
30288;DHT22;17103;48.316;11.558;2024-02-28T00:52:40;11.80;44.30
30288;DHT22;17103;48.316;11.558;2024-02-28T00:55:07;11.80;44.50
30288;DHT22;17103;48.316;11.558;2024-02-28T00:57:32;11.60;44.50
30288;DHT22;17103;48.316;11.558;2024-02-28T00:59:58;11.50;44.80
30288;DHT22;17103;48.316;11.558;2024-02-28T01:02:24;11.40;44.80
30288;DHT22;17103;48.316;11.558;2024-02-28T01:04:50;11.40;45.20
30288;DHT22;17103;48.316;11.558;2024-02-28T01:07:15;11.30;45.00
30288;DHT22;17103;48.316;11.558;2024-02-28T01:09:41;11.60;45.30
30288;DHT22;17103;48.316;11.558;2024-02-28T01:12:07;11.30;45.30
30288;DHT22;17103;48.316;11.558;2024-02-28T01:14:33;11.30;45.30
30288;DHT22;17103;48.316;11.558;2024-02-28T01:16:59;11.20;45.30
30288;DHT22;17103;48.316;11.558;2024-02-28T01:19:24;11.20;45.40
30288;DHT22;17103;48.316;11.558;2024-02-28T01:21:50;11.20;45.50
30288;DHT22;17103;48.316;11.558;2024-02-28T01:24:16;11.20;45.50
30288;DHT22;17103;48.316;11.558;2024-02-28T01:26:42;11.10;45.40
30288;DHT22;17103;48.316;11.558;2024-02-28T01:29:07;11.10;45.60
30288;DHT22;17103;48.316;11.558;2024-02-28T01:31:33;11.30;46.30
30288;DHT22;17103;48.316;11.558;2024-02-28T01:33:58;11.00;45.60
30288;DHT22;17103;48.316;11.558;2024-02-28T01:36:24;11.00;45.70
30288;DHT22;17103;48.316;11.558;2024-02-28T01:38:51;11.00;45.80
30288;DHT22;17103;48.316;11.558;2024-02-28T01:41:17;11.10;46.10
30288;DHT22;17103;48.316;11.558;2024-02-28T01:43:43;11.10;46.00
30288;DHT22;17103;48.316;11.558;2024-02-28T01:46:26;11.20;46.10
30288;DHT22;17103;48.316;11.558;2024-02-28T01:48:53;11.20;46.10
30288;DHT22;17103;48.316;11.558;2024-02-28T01:51:20;11.20;45.90
30288;DHT22;17103;48.316;11.558;2024-02-28T01:53:47;11.20;45.90
30288;DHT22;17103;48.316;11.558;2024-02-28T01:56:14;11.20;45.80
30288;DHT22;17103;48.316;11.558;2024-02-28T01:58:43;11.10;45.90
30288;DHT22;17103;48.316;11.558;2024-02-28T02:01:11;11.10;46.00
30288;DHT22;17103;48.316;11.558;2024-02-28T02:03:37;11.00;45.80
30288;DHT22;17103;48.316;11.558;2024-02-28T02:06:03;11.00;46.00
30288;DHT22;17103;48.316;11.558;2024-02-28T02:08:32;11.00;46.40
30288;DHT22;17103;48.316;11.558;2024-02-28T02:10:59;11.00;46.30
30288;DHT22;17103;48.316;11.558;2024-02-28T02:13:25;11.00;46.40
30288;DHT22;17103;48.316;11.558;2024-02-28T02:15:50;10.80;46.10
30288;DHT22;17103;48.316;11.558;2024-02-28T02:18:16;10.90;46.40
30288;DHT22;17103;48.316;11.558;2024-02-28T02:20:44;10.90;46.30
30288;DHT22;17103;48.316;11.558;2024-02-28T02:23:12;10.90;46.40
30288;DHT22;17103;48.316;11.558;2024-02-28T02:25:48;10.80;46.30
30288;DHT22;17103;48.316;11.558;2024-02-28T02:28:14;10.70;46.40
30288;DHT22;17103;48.316;11.558;2024-02-28T02:30:40;10.70;46.30
30288;DHT22;17103;48.316;11.558;2024-02-28T02:33:07;10.60;46.60
30288;DHT22;17103;48.316;11.558;2024-02-28T02:35:33;10.70;46.70
30288;DHT22;17103;48.316;11.558;2024-02-28T02:37:59;10.60;46.50
30288;DHT22;17103;48.316;11.558;2024-02-28T02:40:25;10.60;46.50
30288;DHT22;17103;48.316;11.558;2024-02-28T02:42:51;11.00;46.80
30288;DHT22;17103;48.316;11.558;2024-02-28T02:45:17;10.80;46.80
30288;DHT22;17103;48.316;11.558;2024-02-28T02:47:42;10.50;46.60
30288;DHT22;17103;48.316;11.558;2024-02-28T02:50:09;10.40;46.50
30288;DHT22;17103;48.316;11.558;2024-02-28T02:52:35;10.40;46.80
30288;DHT22;17103;48.316;11.558;2024-02-28T02:55:02;10.30;46.70
30288;DHT22;17103;48.316;11.558;2024-02-28T02:57:28;10.30;46.80
30288;DHT22;17103;48.316;11.558;2024-02-28T02:59:53;10.20;46.90
30288;DHT22;17103;48.316;11.558;2024-02-28T03:02:19;10.20;47.10
30288;DHT22;17103;48.316;11.558;2024-02-28T03:04:45;10.20;47.00
30288;DHT22;17103;48.316;11.558;2024-02-28T03:07:10;10.10;47.00
30288;DHT22;17103;48.316;11.558;2024-02-28T03:09:36;10.20;47.10
30288;DHT22;17103;48.316;11.558;2024-02-28T03:12:02;10.10;47.20
30288;DHT22;17103;48.316;11.558;2024-02-28T03:14:27;10.00;47.10
30288;DHT22;17103;48.316;11.558;2024-02-28T03:16:53;10.00;47.20
30288;DHT22;17103;48.316;11.558;2024-02-28T03:19:19;9.90;48.10
30288;DHT22;17103;48.316;11.558;2024-02-28T03:21:45;9.90;48.30
30288;DHT22;17103;48.316;11.558;2024-02-28T03:24:11;9.80;48.30
30288;DHT22;17103;48.316;11.558;2024-02-28T03:26:37;9.70;48.50
30288;DHT22;17103;48.316;11.558;2024-02-28T03:29:02;9.70;48.50
30288;DHT22;17103;48.316;11.558;2024-02-28T03:31:28;9.70;48.70
30288;DHT22;17103;48.316;11.558;2024-02-28T03:33:54;9.60;48.80
30288;DHT22;17103;48.316;11.558;2024-02-28T03:36:20;9.60;48.80
30288;DHT22;17103;48.316;11.558;2024-02-28T03:38:45;9.60;48.80
30288;DHT22;17103;48.316;11.558;2024-02-28T03:41:11;9.60;49.00
30288;DHT22;17103;48.316;11.558;2024-02-28T03:43:37;9.60;49.00
30288;DHT22;17103;48.316;11.558;2024-02-28T03:46:02;9.60;48.90
30288;DHT22;17103;48.316;11.558;2024-02-28T03:48:28;9.60;49.00
30288;DHT22;17103;48.316;11.558;2024-02-28T03:50:54;9.60;49.10
30288;DHT22;17103;48.316;11.558;2024-02-28T03:53:19;9.50;49.00
30288;DHT22;17103;48.316;11.558;2024-02-28T03:55:45;9.50;49.20
30288;DHT22;17103;48.316;11.558;2024-02-28T03:58:11;9.50;49.10
30288;DHT22;17103;48.316;11.558;2024-02-28T04:00:37;9.50;49.10
30288;DHT22;17103;48.316;11.558;2024-02-28T04:03:04;9.50;49.20
30288;DHT22;17103;48.316;11.558;2024-02-28T04:05:30;9.40;49.30
30288;DHT22;17103;48.316;11.558;2024-02-28T04:07:56;9.40;49.20
30288;DHT22;17103;48.316;11.558;2024-02-28T04:10:22;9.50;49.40
30288;DHT22;17103;48.316;11.558;2024-02-28T04:12:48;9.50;49.40
30288;DHT22;17103;48.316;11.558;2024-02-28T04:15:14;9.60;49.50
30288;DHT22;17103;48.316;11.558;2024-02-28T04:17:40;9.60;49.60
30288;DHT22;17103;48.316;11.558;2024-02-28T04:20:12;9.60;49.50
30288;DHT22;17103;48.316;11.558;2024-02-28T04:22:38;9.70;49.60
30288;DHT22;17103;48.316;11.558;2024-02-28T04:25:05;9.80;49.50
30288;DHT22;17103;48.316;11.558;2024-02-28T04:27:32;9.90;49.50
30288;DHT22;17103;48.316;11.558;2024-02-28T04:29:58;10.00;48.50
30288;DHT22;17103;48.316;11.558;2024-02-28T04:32:23;10.10;48.40
30288;DHT22;17103;48.316;11.558;2024-02-28T04:34:49;10.20;48.40
30288;DHT22;17103;48.316;11.558;2024-02-28T04:37:15;10.30;48.20
30288;DHT22;17103;48.316;11.558;2024-02-28T04:39:41;10.40;48.10
30288;DHT22;17103;48.316;11.558;2024-02-28T04:42:06;10.60;48.10
30288;DHT22;17103;48.316;11.558;2024-02-28T04:44:33;10.60;47.70
30288;DHT22;17103;48.316;11.558;2024-02-28T04:46:59;10.70;47.60
30288;DHT22;17103;48.316;11.558;2024-02-28T04:49:24;10.80;47.50
30288;DHT22;17103;48.316;11.558;2024-02-28T04:51:50;10.90;47.40
30288;DHT22;17103;48.316;11.558;2024-02-28T04:54:16;11.00;47.30
30288;DHT22;17103;48.316;11.558;2024-02-28T04:56:42;11.10;47.20
30288;DHT22;17103;48.316;11.558;2024-02-28T04:59:11;11.20;47.60
30288;DHT22;17103;48.316;11.558;2024-02-28T05:01:38;11.30;47.00
30288;DHT22;17103;48.316;11.558;2024-02-28T05:04:06;11.30;46.90
30288;DHT22;17103;48.316;11.558;2024-02-28T05:06:32;11.40;46.70
30288;DHT22;17103;48.316;11.558;2024-02-28T05:08:57;11.50;46.70
30288;DHT22;17103;48.316;11.558;2024-02-28T05:11:23;11.60;46.60
30288;DHT22;17103;48.316;11.558;2024-02-28T05:13:49;11.60;46.90
30288;DHT22;17103;48.316;11.558;2024-02-28T05:16:15;11.70;46.30
30288;DHT22;17103;48.316;11.558;2024-02-28T05:18:41;11.70;46.30
30288;DHT22;17103;48.316;11.558;2024-02-28T05:21:07;11.80;46.30
30288;DHT22;17103;48.316;11.558;2024-02-28T05:23:33;12.30;46.50
30288;DHT22;17103;48.316;11.558;2024-02-28T05:25:59;12.00;46.10
30288;DHT22;17103;48.316;11.558;2024-02-28T05:28:38;12.00;46.00
30288;DHT22;17103;48.316;11.558;2024-02-28T05:33:45;12.00;45.70
30288;DHT22;17103;48.316;11.558;2024-02-28T05:36:11;12.10;45.70
30288;DHT22;17103;48.316;11.558;2024-02-28T05:38:37;12.10;45.40
30288;DHT22;17103;48.316;11.558;2024-02-28T05:41:02;12.20;45.40
30288;DHT22;17103;48.316;11.558;2024-02-28T05:43:28;12.20;45.30
30288;DHT22;17103;48.316;11.558;2024-02-28T05:45:54;12.20;45.20
30288;DHT22;17103;48.316;11.558;2024-02-28T05:48:19;12.20;45.10
30288;DHT22;17103;48.316;11.558;2024-02-28T05:50:45;12.20;45.20
30288;DHT22;17103;48.316;11.558;2024-02-28T05:53:11;12.20;45.20
30288;DHT22;17103;48.316;11.558;2024-02-28T05:55:37;12.20;45.20
30288;DHT22;17103;48.316;11.558;2024-02-28T05:58:03;12.30;45.20
30288;DHT22;17103;48.316;11.558;2024-02-28T06:00:29;12.30;45.00
30288;DHT22;17103;48.316;11.558;2024-02-28T06:02:54;12.30;45.00
30288;DHT22;17103;48.316;11.558;2024-02-28T06:05:20;12.30;44.90
30288;DHT22;17103;48.316;11.558;2024-02-28T06:07:46;12.30;44.90
30288;DHT22;17103;48.316;11.558;2024-02-28T06:10:11;12.30;44.90
30288;DHT22;17103;48.316;11.558;2024-02-28T06:12:37;12.30;45.00
30288;DHT22;17103;48.316;11.558;2024-02-28T06:15:04;12.30;45.00
30288;DHT22;17103;48.316;11.558;2024-02-28T06:17:30;12.30;44.90
30288;DHT22;17103;48.316;11.558;2024-02-28T06:19:56;12.40;45.00
30288;DHT22;17103;48.316;11.558;2024-02-28T06:22:21;12.40;44.90
30288;DHT22;17103;48.316;11.558;2024-02-28T06:24:47;12.40;44.80
30288;DHT22;17103;48.316;11.558;2024-02-28T06:27:13;12.50;44.80
30288;DHT22;17103;48.316;11.558;2024-02-28T06:29:41;12.40;44.60
30288;DHT22;17103;48.316;11.558;2024-02-28T06:32:08;12.50;44.60
30288;DHT22;17103;48.316;11.558;2024-02-28T06:34:33;12.40;44.50
30288;DHT22;17103;48.316;11.558;2024-02-28T06:36:59;12.30;44.40
30288;DHT22;17103;48.316;11.558;2024-02-28T06:39:25;12.30;44.60
30288;DHT22;17103;48.316;11.558;2024-02-28T06:41:51;12.20;44.60
30288;DHT22;17103;48.316;11.558;2024-02-28T06:44:18;12.30;44.80
30288;DHT22;17103;48.316;11.558;2024-02-28T06:46:44;12.20;44.80
30288;DHT22;17103;48.316;11.558;2024-02-28T06:49:10;12.20;44.80
30288;DHT22;17103;48.316;11.558;2024-02-28T06:51:36;12.10;44.70
30288;DHT22;17103;48.316;11.558;2024-02-28T06:54:02;12.10;44.70
30288;DHT22;17103;48.316;11.558;2024-02-28T06:56:28;12.10;44.70
30288;DHT22;17103;48.316;11.558;2024-02-28T06:58:54;12.30;44.90
30288;DHT22;17103;48.316;11.558;2024-02-28T07:01:20;11.90;44.70
30288;DHT22;17103;48.316;11.558;2024-02-28T07:03:46;11.90;44.80
30288;DHT22;17103;48.316;11.558;2024-02-28T07:06:11;11.90;44.90
30288;DHT22;17103;48.316;11.558;2024-02-28T07:08:37;11.80;45.40
30288;DHT22;17103;48.316;11.558;2024-02-28T07:11:04;11.70;44.80
30288;DHT22;17103;48.316;11.558;2024-02-28T07:13:30;11.60;44.80
30288;DHT22;17103;48.316;11.558;2024-02-28T07:15:55;11.50;44.80
30288;DHT22;17103;48.316;11.558;2024-02-28T07:18:23;11.30;44.90
30288;DHT22;17103;48.316;11.558;2024-02-28T07:20:51;11.20;45.10
30288;DHT22;17103;48.316;11.558;2024-02-28T07:23:17;11.10;45.20
30288;DHT22;17103;48.316;11.558;2024-02-28T07:25:43;11.00;45.40
30288;DHT22;17103;48.316;11.558;2024-02-28T07:28:09;11.00;45.70
30288;DHT22;17103;48.316;11.558;2024-02-28T07:30:34;10.80;45.80
30288;DHT22;17103;48.316;11.558;2024-02-28T07:33:01;10.70;45.90
30288;DHT22;17103;48.316;11.558;2024-02-28T07:35:26;10.60;46.10
30288;DHT22;17103;48.316;11.558;2024-02-28T07:37:52;10.50;46.30
30288;DHT22;17103;48.316;11.558;2024-02-28T07:40:18;10.40;46.40
30288;DHT22;17103;48.316;11.558;2024-02-28T07:42:44;10.30;46.60
30288;DHT22;17103;48.316;11.558;2024-02-28T07:45:10;10.30;46.80
30288;DHT22;17103;48.316;11.558;2024-02-28T07:47:36;10.20;47.00
30288;DHT22;17103;48.316;11.558;2024-02-28T07:50:02;10.00;47.00
30288;DHT22;17103;48.316;11.558;2024-02-28T07:52:28;10.00;47.30
30288;DHT22;17103;48.316;11.558;2024-02-28T07:54:54;10.00;47.50
30288;DHT22;17103;48.316;11.558;2024-02-28T07:57:21;9.90;48.60
30288;DHT22;17103;48.316;11.558;2024-02-28T07:59:50;9.80;48.70
30288;DHT22;17103;48.316;11.558;2024-02-28T08:02:16;9.80;48.80
30288;DHT22;17103;48.316;11.558;2024-02-28T08:04:45;9.70;49.00
30288;DHT22;17103;48.316;11.558;2024-02-28T08:07:11;9.80;49.20
30288;DHT22;17103;48.316;11.558;2024-02-28T08:09:37;9.60;49.20
30288;DHT22;17103;48.316;11.558;2024-02-28T08:12:06;9.60;49.60
30288;DHT22;17103;48.316;11.558;2024-02-28T08:14:32;9.50;50.10
30288;DHT22;17103;48.316;11.558;2024-02-28T08:16:57;9.50;49.50
30288;DHT22;17103;48.316;11.558;2024-02-28T08:19:23;9.50;50.00
30288;DHT22;17103;48.316;11.558;2024-02-28T08:21:49;9.40;49.70
30288;DHT22;17103;48.316;11.558;2024-02-28T08:24:15;9.40;49.90
30288;DHT22;17103;48.316;11.558;2024-02-28T08:26:41;9.40;50.20
30288;DHT22;17103;48.316;11.558;2024-02-28T08:29:07;9.30;50.30
30288;DHT22;17103;48.316;11.558;2024-02-28T08:31:33;9.30;50.10
30288;DHT22;17103;48.316;11.558;2024-02-28T08:34:04;9.20;50.00
30288;DHT22;17103;48.316;11.558;2024-02-28T08:36:30;9.30;50.20
30288;DHT22;17103;48.316;11.558;2024-02-28T08:38:55;9.20;50.30
30288;DHT22;17103;48.316;11.558;2024-02-28T08:41:21;9.20;50.40
30288;DHT22;17103;48.316;11.558;2024-02-28T08:43:47;9.60;50.70
30288;DHT22;17103;48.316;11.558;2024-02-28T08:46:15;9.20;50.40
30288;DHT22;17103;48.316;11.558;2024-02-28T08:48:41;9.20;50.60
30288;DHT22;17103;48.316;11.558;2024-02-28T08:51:07;9.20;50.50
30288;DHT22;17103;48.316;11.558;2024-02-28T08:53:33;9.20;50.50
30288;DHT22;17103;48.316;11.558;2024-02-28T08:56:00;9.30;50.60
30288;DHT22;17103;48.316;11.558;2024-02-28T08:58:26;9.30;50.60
30288;DHT22;17103;48.316;11.558;2024-02-28T09:00:51;9.20;50.40
30288;DHT22;17103;48.316;11.558;2024-02-28T09:03:18;9.30;50.60
30288;DHT22;17103;48.316;11.558;2024-02-28T09:05:44;9.30;50.70
30288;DHT22;17103;48.316;11.558;2024-02-28T09:08:10;9.30;50.50
30288;DHT22;17103;48.316;11.558;2024-02-28T09:10:36;9.40;50.60
30288;DHT22;17103;48.316;11.558;2024-02-28T09:13:01;9.40;50.70
30288;DHT22;17103;48.316;11.558;2024-02-28T09:15:28;9.40;50.50
30288;DHT22;17103;48.316;11.558;2024-02-28T09:17:54;9.50;50.60
30288;DHT22;17103;48.316;11.558;2024-02-28T09:20:19;9.50;50.50
30288;DHT22;17103;48.316;11.558;2024-02-28T09:22:45;9.50;50.40
30288;DHT22;17103;48.316;11.558;2024-02-28T09:25:11;9.70;50.80
30288;DHT22;17103;48.316;11.558;2024-02-28T09:27:37;9.50;50.50
30288;DHT22;17103;48.316;11.558;2024-02-28T09:30:03;9.60;50.60
30288;DHT22;17103;48.316;11.558;2024-02-28T09:32:29;9.50;50.50
30288;DHT22;17103;48.316;11.558;2024-02-28T09:34:54;9.50;50.60
30288;DHT22;17103;48.316;11.558;2024-02-28T09:37:20;9.50;50.50
30288;DHT22;17103;48.316;11.558;2024-02-28T09:39:48;9.60;50.70
30288;DHT22;17103;48.316;11.558;2024-02-28T09:42:14;9.60;50.50
30288;DHT22;17103;48.316;11.558;2024-02-28T09:44:40;9.60;50.30
30288;DHT22;17103;48.316;11.558;2024-02-28T09:47:08;9.70;50.50
30288;DHT22;17103;48.316;11.558;2024-02-28T09:49:34;9.60;50.50
30288;DHT22;17103;48.316;11.558;2024-02-28T09:52:03;9.70;50.60
30288;DHT22;17103;48.316;11.558;2024-02-28T09:54:29;9.70;50.50
30288;DHT22;17103;48.316;11.558;2024-02-28T09:56:55;9.70;50.30
30288;DHT22;17103;48.316;11.558;2024-02-28T09:59:23;9.70;50.20
30288;DHT22;17103;48.316;11.558;2024-02-28T10:01:56;9.80;50.40
30288;DHT22;17103;48.316;11.558;2024-02-28T10:04:26;9.80;50.60
30288;DHT22;17103;48.316;11.558;2024-02-28T10:06:56;9.80;50.30
30288;DHT22;17103;48.316;11.558;2024-02-28T10:09:22;9.80;50.30
30288;DHT22;17103;48.316;11.558;2024-02-28T10:11:48;9.80;50.10
30288;DHT22;17103;48.316;11.558;2024-02-28T10:14:20;9.80;50.20
30288;DHT22;17103;48.316;11.558;2024-02-28T10:16:46;9.80;50.30
30288;DHT22;17103;48.316;11.558;2024-02-28T10:19:11;9.90;50.20
30288;DHT22;17103;48.316;11.558;2024-02-28T10:21:37;9.90;50.30
30288;DHT22;17103;48.316;11.558;2024-02-28T10:24:04;10.00;49.40
30288;DHT22;17103;48.316;11.558;2024-02-28T10:26:30;10.00;49.50
30288;DHT22;17103;48.316;11.558;2024-02-28T10:28:58;10.00;49.40
30288;DHT22;17103;48.316;11.558;2024-02-28T10:31:23;10.10;49.40
30288;DHT22;17103;48.316;11.558;2024-02-28T10:33:49;10.10;49.30
30288;DHT22;17103;48.316;11.558;2024-02-28T10:36:15;10.50;49.70
30288;DHT22;17103;48.316;11.558;2024-02-28T10:38:41;10.20;49.30
30288;DHT22;17103;48.316;11.558;2024-02-28T10:41:07;10.20;49.30
30288;DHT22;17103;48.316;11.558;2024-02-28T10:43:33;10.30;49.40
30288;DHT22;17103;48.316;11.558;2024-02-28T10:46:00;10.50;49.40
30288;DHT22;17103;48.316;11.558;2024-02-28T10:48:26;10.40;49.30
30288;DHT22;17103;48.316;11.558;2024-02-28T10:50:53;10.40;49.20
30288;DHT22;17103;48.316;11.558;2024-02-28T10:53:22;10.40;49.00
30288;DHT22;17103;48.316;11.558;2024-02-28T10:55:56;10.50;49.10
30288;DHT22;17103;48.316;11.558;2024-02-28T10:58:24;10.50;49.00
30288;DHT22;17103;48.316;11.558;2024-02-28T11:00:53;10.50;49.10
30288;DHT22;17103;48.316;11.558;2024-02-28T11:03:18;10.50;49.00
30288;DHT22;17103;48.316;11.558;2024-02-28T11:05:45;10.50;48.90
30288;DHT22;17103;48.316;11.558;2024-02-28T11:08:24;10.50;48.80
30288;DHT22;17103;48.316;11.558;2024-02-28T11:11:03;10.70;49.10
30288;DHT22;17103;48.316;11.558;2024-02-28T11:13:35;10.50;49.00
30288;DHT22;17103;48.316;11.558;2024-02-28T11:16:11;10.50;48.90
30288;DHT22;17103;48.316;11.558;2024-02-28T11:18:48;10.60;49.00
30288;DHT22;17103;48.316;11.558;2024-02-28T11:21:17;10.80;49.10
30288;DHT22;17103;48.316;11.558;2024-02-28T11:23:46;10.60;49.00
30288;DHT22;17103;48.316;11.558;2024-02-28T11:26:15;10.60;49.00
30288;DHT22;17103;48.316;11.558;2024-02-28T11:28:41;10.60;49.00
30288;DHT22;17103;48.316;11.558;2024-02-28T11:31:07;10.70;49.10
30288;DHT22;17103;48.316;11.558;2024-02-28T11:33:36;10.70;48.90
30288;DHT22;17103;48.316;11.558;2024-02-28T11:36:02;11.50;49.50
30288;DHT22;17103;48.316;11.558;2024-02-28T11:38:29;10.80;48.90
30288;DHT22;17103;48.316;11.558;2024-02-28T11:40:55;10.80;48.80
30288;DHT22;17103;48.316;11.558;2024-02-28T11:43:21;10.90;48.80
30288;DHT22;17103;48.316;11.558;2024-02-28T11:45:47;10.90;48.80
30288;DHT22;17103;48.316;11.558;2024-02-28T11:48:23;10.90;48.60
30288;DHT22;17103;48.316;11.558;2024-02-28T11:51:00;11.00;48.60
30288;DHT22;17103;48.316;11.558;2024-02-28T11:53:27;11.00;48.50
30288;DHT22;17103;48.316;11.558;2024-02-28T11:55:53;11.00;48.40
30288;DHT22;17103;48.316;11.558;2024-02-28T11:58:18;11.00;48.50
30288;DHT22;17103;48.316;11.558;2024-02-28T12:00:50;11.10;48.50
30288;DHT22;17103;48.316;11.558;2024-02-28T12:03:23;11.10;48.60
30288;DHT22;17103;48.316;11.558;2024-02-28T12:05:51;11.20;49.00
30288;DHT22;17103;48.316;11.558;2024-02-28T12:08:23;11.20;48.80
30288;DHT22;17103;48.316;11.558;2024-02-28T12:10:52;11.30;48.50
30288;DHT22;17103;48.316;11.558;2024-02-28T12:13:18;11.30;48.30
30288;DHT22;17103;48.316;11.558;2024-02-28T12:15:44;11.80;48.60
30288;DHT22;17103;48.316;11.558;2024-02-28T12:18:11;11.40;48.30
30288;DHT22;17103;48.316;11.558;2024-02-28T12:20:38;11.40;48.00
30288;DHT22;17103;48.316;11.558;2024-02-28T12:23:05;11.50;47.90
30288;DHT22;17103;48.316;11.558;2024-02-28T12:25:32;11.40;47.70
30288;DHT22;17103;48.316;11.558;2024-02-28T12:27:58;11.50;47.90
30288;DHT22;17103;48.316;11.558;2024-02-28T12:30:24;11.50;48.50
30288;DHT22;17103;48.316;11.558;2024-02-28T12:32:50;11.60;49.10
30288;DHT22;17103;48.316;11.558;2024-02-28T12:35:15;11.70;48.80
30288;DHT22;17103;48.316;11.558;2024-02-28T12:37:41;11.80;48.30
30288;DHT22;17103;48.316;11.558;2024-02-28T12:40:07;11.80;48.20
30288;DHT22;17103;48.316;11.558;2024-02-28T12:42:33;11.90;48.40
30288;DHT22;17103;48.316;11.558;2024-02-28T12:44:59;12.00;48.70
30288;DHT22;17103;48.316;11.558;2024-02-28T12:47:25;12.10;48.80
30288;DHT22;17103;48.316;11.558;2024-02-28T12:49:51;12.20;48.60
30288;DHT22;17103;48.316;11.558;2024-02-28T12:52:17;12.30;48.20
30288;DHT22;17103;48.316;11.558;2024-02-28T12:54:43;12.40;48.10
30288;DHT22;17103;48.316;11.558;2024-02-28T12:57:09;12.40;47.90
30288;DHT22;17103;48.316;11.558;2024-02-28T12:59:37;12.50;47.60
30288;DHT22;17103;48.316;11.558;2024-02-28T13:02:04;12.60;47.60
30288;DHT22;17103;48.316;11.558;2024-02-28T13:04:30;12.70;47.40
30288;DHT22;17103;48.316;11.558;2024-02-28T13:06:56;12.70;47.00
30288;DHT22;17103;48.316;11.558;2024-02-28T13:09:23;12.80;46.80
30288;DHT22;17103;48.316;11.558;2024-02-28T13:11:49;12.80;46.40
30288;DHT22;17103;48.316;11.558;2024-02-28T13:14:15;12.80;46.10
30288;DHT22;17103;48.316;11.558;2024-02-28T13:16:41;12.70;46.00
30288;DHT22;17103;48.316;11.558;2024-02-28T13:19:06;12.80;46.10
30288;DHT22;17103;48.316;11.558;2024-02-28T13:21:32;12.70;46.00
30288;DHT22;17103;48.316;11.558;2024-02-28T13:23:58;12.70;45.80
30288;DHT22;17103;48.316;11.558;2024-02-28T13:26:24;12.60;45.70
30288;DHT22;17103;48.316;11.558;2024-02-28T13:28:50;12.60;45.40
30288;DHT22;17103;48.316;11.558;2024-02-28T13:31:17;12.50;45.30
30288;DHT22;17103;48.316;11.558;2024-02-28T13:33:42;12.50;45.40
30288;DHT22;17103;48.316;11.558;2024-02-28T13:36:08;12.50;45.60
30288;DHT22;17103;48.316;11.558;2024-02-28T13:38:34;12.50;45.50
30288;DHT22;17103;48.316;11.558;2024-02-28T13:41:00;12.50;45.50
30288;DHT22;17103;48.316;11.558;2024-02-28T13:43:26;12.40;45.30
30288;DHT22;17103;48.316;11.558;2024-02-28T13:45:53;12.40;45.40
30288;DHT22;17103;48.316;11.558;2024-02-28T13:48:23;12.40;45.40
30288;DHT22;17103;48.316;11.558;2024-02-28T13:50:56;12.40;45.30
30288;DHT22;17103;48.316;11.558;2024-02-28T13:53:22;12.30;45.90
30288;DHT22;17103;48.316;11.558;2024-02-28T13:55:50;12.40;45.60
30288;DHT22;17103;48.316;11.558;2024-02-28T13:58:16;12.50;45.80
30288;DHT22;17103;48.316;11.558;2024-02-28T14:00:48;12.30;45.50
30288;DHT22;17103;48.316;11.558;2024-02-28T14:03:14;12.30;45.50
30288;DHT22;17103;48.316;11.558;2024-02-28T14:05:40;12.30;45.60
30288;DHT22;17103;48.316;11.558;2024-02-28T14:08:06;12.30;45.50
30288;DHT22;17103;48.316;11.558;2024-02-28T14:10:37;12.30;45.50
30288;DHT22;17103;48.316;11.558;2024-02-28T14:13:03;12.30;45.50
30288;DHT22;17103;48.316;11.558;2024-02-28T14:15:29;12.30;45.50
30288;DHT22;17103;48.316;11.558;2024-02-28T14:17:54;12.20;45.40
30288;DHT22;17103;48.316;11.558;2024-02-28T14:20:20;12.20;45.50
30288;DHT22;17103;48.316;11.558;2024-02-28T14:22:46;12.20;45.50
30288;DHT22;17103;48.316;11.558;2024-02-28T14:25:14;12.10;45.40
30288;DHT22;17103;48.316;11.558;2024-02-28T14:27:41;12.20;45.60
30288;DHT22;17103;48.316;11.558;2024-02-28T14:30:08;12.10;45.70
30288;DHT22;17103;48.316;11.558;2024-02-28T14:32:38;12.10;45.70
30288;DHT22;17103;48.316;11.558;2024-02-28T14:35:05;12.10;45.70
30288;DHT22;17103;48.316;11.558;2024-02-28T14:37:34;12.10;45.80
30288;DHT22;17103;48.316;11.558;2024-02-28T14:40:01;12.10;45.70
30288;DHT22;17103;48.316;11.558;2024-02-28T14:42:29;12.20;45.80
30288;DHT22;17103;48.316;11.558;2024-02-28T14:44:55;12.20;45.70
30288;DHT22;17103;48.316;11.558;2024-02-28T14:47:21;12.10;45.60
30288;DHT22;17103;48.316;11.558;2024-02-28T14:49:47;12.20;45.70
30288;DHT22;17103;48.316;11.558;2024-02-28T14:52:16;12.30;45.50
30288;DHT22;17103;48.316;11.558;2024-02-28T14:54:42;12.50;45.80
30288;DHT22;17103;48.316;11.558;2024-02-28T14:57:09;12.30;45.60
30288;DHT22;17103;48.316;11.558;2024-02-28T14:59:35;12.30;45.50
30288;DHT22;17103;48.316;11.558;2024-02-28T15:02:01;12.30;45.40
30288;DHT22;17103;48.316;11.558;2024-02-28T15:04:27;12.40;45.40
30288;DHT22;17103;48.316;11.558;2024-02-28T15:06:52;12.30;45.20
30288;DHT22;17103;48.316;11.558;2024-02-28T15:09:21;12.40;45.30
30288;DHT22;17103;48.316;11.558;2024-02-28T15:11:48;12.40;45.60
30288;DHT22;17103;48.316;11.558;2024-02-28T15:14:14;12.30;45.00
30288;DHT22;17103;48.316;11.558;2024-02-28T15:16:40;12.40;45.10
30288;DHT22;17103;48.316;11.558;2024-02-28T15:19:06;12.40;45.20